createdAt,value
2018-12-18T00:00:39.272Z,0
2018-12-18T00:01:49.194Z,0
2018-12-18T00:02:59.120Z,0
2018-12-18T00:04:09.042Z,0
2018-12-18T00:05:19.065Z,0
2018-12-18T00:06:28.993Z,0
2018-12-18T00:07:38.922Z,0
2018-12-18T00:08:48.842Z,0
2018-12-18T00:09:58.776Z,0
2018-12-18T00:11:08.755Z,0
2018-12-18T00:12:18.689Z,0
2018-12-18T00:13:28.615Z,0
2018-12-18T00:14:39.248Z,0
2018-12-18T00:15:49.302Z,0
2018-12-18T00:16:59.283Z,0
2018-12-18T00:18:08.955Z,0
2018-12-18T00:19:18.874Z,0
2018-12-18T00:20:28.796Z,0
2018-12-18T00:21:38.723Z,0
2018-12-18T00:22:48.744Z,0
2018-12-18T00:23:58.669Z,0
2018-12-18T00:25:08.595Z,0
2018-12-18T00:26:18.513Z,0
2018-12-18T00:27:28.435Z,0
2018-12-18T00:28:38.405Z,0
2018-12-18T00:29:48.334Z,0
2018-12-18T00:30:58.269Z,0
2018-12-18T00:32:08.192Z,0
2018-12-18T00:33:18.117Z,0
2018-12-18T00:34:28.087Z,0
2018-12-18T00:35:38.007Z,0
2018-12-18T00:36:47.928Z,0
2018-12-18T00:37:57.851Z,0
2018-12-18T00:39:07.773Z,0
2018-12-18T00:40:17.796Z,0
2018-12-18T00:41:27.721Z,0
2018-12-18T00:42:37.645Z,0
2018-12-18T00:43:47.565Z,0
2018-12-18T00:44:57.489Z,0
2018-12-18T00:46:07.467Z,0
2018-12-18T00:47:17.390Z,0
2018-12-18T00:48:27.310Z,0
2018-12-18T00:49:37.234Z,0
2018-12-18T00:50:47.160Z,0
2018-12-18T00:51:57.283Z,0
2018-12-18T00:53:07.208Z,0
2018-12-18T00:54:17.128Z,0
2018-12-18T00:55:27.047Z,0
2018-12-18T00:56:36.974Z,0
2018-12-18T00:57:46.950Z,0
2018-12-18T00:58:56.870Z,0
2018-12-18T01:00:06.536Z,0
2018-12-18T01:01:16.455Z,0
2018-12-18T01:02:26.378Z,0
2018-12-18T01:03:36.306Z,0
2018-12-18T01:04:46.239Z,0
2018-12-18T01:05:56.160Z,0
2018-12-18T01:07:06.080Z,0
2018-12-18T01:08:16.000Z,0
2018-12-18T01:09:25.977Z,0
2018-12-18T01:10:35.903Z,0
2018-12-18T01:11:45.821Z,0
2018-12-18T01:12:55.740Z,0
2018-12-18T01:14:05.664Z,0
2018-12-18T01:15:15.682Z,0
2018-12-18T01:16:25.598Z,0
2018-12-18T01:17:35.521Z,0
2018-12-18T01:18:45.440Z,0
2018-12-18T01:19:55.359Z,0
2018-12-18T01:21:05.384Z,0
2018-12-18T01:22:15.303Z,0
2018-12-18T01:23:25.221Z,0
2018-12-18T01:24:35.140Z,0
2018-12-18T01:25:45.064Z,0
2018-12-18T01:26:54.996Z,0
2018-12-18T01:28:04.915Z,0
2018-12-18T01:29:14.832Z,0
2018-12-18T01:30:24.757Z,0
2018-12-18T01:31:34.675Z,0
2018-12-18T01:32:44.746Z,0
2018-12-18T01:33:59.212Z,0
2018-12-18T01:35:09.315Z,0
2018-12-18T01:36:18.981Z,0
2018-12-18T01:37:28.903Z,0
2018-12-18T01:38:38.832Z,0
2018-12-18T01:39:48.754Z,0
2018-12-18T01:40:58.673Z,0
2018-12-18T01:42:08.609Z,0
2018-12-18T01:43:18.528Z,0
2018-12-18T01:44:28.497Z,0
2018-12-18T01:45:38.178Z,0
2018-12-18T01:46:48.094Z,0
2018-12-18T01:47:58.020Z,0
2018-12-18T01:49:07.946Z,0
2018-12-18T01:50:17.966Z,0
2018-12-18T01:51:27.889Z,0
2018-12-18T01:52:37.809Z,0
2018-12-18T01:53:47.480Z,0
2018-12-18T01:54:57.147Z,0
2018-12-18T01:56:07.120Z,0
2018-12-18T01:57:17.039Z,0
2018-12-18T01:58:26.958Z,0
2018-12-18T01:59:36.891Z,0
2018-12-18T02:00:46.818Z,0
2018-12-18T02:01:56.786Z,0
2018-12-18T02:03:06.710Z,0
2018-12-18T02:04:16.637Z,0
2018-12-18T02:05:26.560Z,0
2018-12-18T02:06:36.486Z,0
2018-12-18T02:07:46.512Z,0
2018-12-18T02:08:56.437Z,0
2018-12-18T02:10:06.422Z,0
2018-12-18T02:11:16.349Z,0
2018-12-18T02:12:26.271Z,0
2018-12-18T02:13:36.290Z,0
2018-12-18T02:14:45.962Z,0
2018-12-18T02:15:55.881Z,0
2018-12-18T02:17:05.809Z,0
2018-12-18T02:18:15.727Z,0
2018-12-18T02:19:25.710Z,0
2018-12-18T02:20:35.638Z,0
2018-12-18T02:21:45.556Z,0
2018-12-18T02:22:55.223Z,0
2018-12-18T02:24:05.148Z,0
2018-12-18T02:25:15.168Z,0
2018-12-18T02:26:25.090Z,0
2018-12-18T02:27:35.010Z,0
2018-12-18T02:28:44.998Z,0
2018-12-18T02:29:54.920Z,0
2018-12-18T02:31:04.889Z,0
2018-12-18T02:32:14.815Z,0
2018-12-18T02:33:24.752Z,0
2018-12-18T02:34:34.700Z,0
2018-12-18T02:35:44.665Z,0
2018-12-18T02:36:54.689Z,0
2018-12-18T02:38:04.619Z,0
2018-12-18T02:39:14.547Z,0
2018-12-18T02:40:24.483Z,0
2018-12-18T02:41:34.409Z,0
2018-12-18T02:42:44.435Z,0
2018-12-18T02:43:54.353Z,0
2018-12-18T02:45:04.287Z,0
2018-12-18T02:46:14.206Z,0
2018-12-18T02:47:24.139Z,0
2018-12-18T02:48:34.159Z,0
2018-12-18T02:49:44.147Z,0
2018-12-18T02:50:53.879Z,0
2018-12-18T02:52:03.881Z,0
2018-12-18T02:53:13.805Z,0
2018-12-18T02:54:23.791Z,0
2018-12-18T02:55:33.717Z,0
2018-12-18T02:56:43.638Z,0
2018-12-18T02:57:53.559Z,0
2018-12-18T02:59:03.481Z,0
2018-12-18T03:00:13.460Z,0
2018-12-18T03:01:23.393Z,0
2018-12-18T03:02:33.336Z,0
2018-12-18T03:03:43.255Z,0
2018-12-18T03:04:52.931Z,0
2018-12-18T03:06:02.706Z,0
2018-12-18T03:07:12.640Z,0
2018-12-18T03:08:22.567Z,0
2018-12-18T03:09:32.489Z,0
2018-12-18T03:10:42.438Z,0
2018-12-18T03:11:52.459Z,0
2018-12-18T03:13:02.399Z,0
2018-12-18T03:14:12.320Z,0
2018-12-18T03:15:22.264Z,0
2018-12-18T03:16:32.286Z,0
2018-12-18T03:17:42.311Z,0
2018-12-18T03:18:52.247Z,0
2018-12-18T03:20:02.176Z,0
2018-12-18T03:21:12.132Z,0
2018-12-18T03:22:22.064Z,0
2018-12-18T03:23:32.104Z,0
2018-12-18T03:24:42.043Z,0
2018-12-18T03:25:51.971Z,0
2018-12-18T03:27:01.903Z,0
2018-12-18T03:28:11.835Z,0
2018-12-18T03:29:21.865Z,0
2018-12-18T03:30:31.821Z,0
2018-12-18T03:31:41.780Z,0
2018-12-18T03:32:51.777Z,0
2018-12-18T03:34:01.705Z,0
2018-12-18T03:35:11.699Z,0
2018-12-18T03:36:21.624Z,0
2018-12-18T03:37:31.550Z,0
2018-12-18T03:38:41.496Z,0
2018-12-18T03:39:51.441Z,0
2018-12-18T03:41:01.423Z,0
2018-12-18T03:42:11.352Z,0
2018-12-18T03:43:21.274Z,0
2018-12-18T03:44:31.235Z,0
2018-12-18T03:45:41.163Z,0
2018-12-18T03:46:51.190Z,0
2018-12-18T03:48:01.116Z,0
2018-12-18T03:49:11.040Z,0
2018-12-18T03:50:20.966Z,0
2018-12-18T03:51:30.893Z,0
2018-12-18T03:52:40.934Z,0
2018-12-18T03:53:50.920Z,0
2018-12-18T03:55:00.841Z,0
2018-12-18T03:56:10.759Z,0
2018-12-18T03:57:20.696Z,0
2018-12-18T03:58:30.672Z,0
2018-12-18T03:59:40.601Z,0
2018-12-18T04:00:50.523Z,0
2018-12-18T04:02:00.449Z,0
2018-12-18T04:03:10.372Z,0
2018-12-18T04:04:20.353Z,0
2018-12-18T04:05:30.296Z,0
2018-12-18T04:06:40.228Z,0
2018-12-18T04:07:50.166Z,0
2018-12-18T04:09:00.165Z,0
2018-12-18T04:10:10.184Z,0
2018-12-18T04:11:20.105Z,0
2018-12-18T04:12:30.044Z,0
2018-12-18T04:13:39.967Z,0
2018-12-18T04:14:49.901Z,0
2018-12-18T04:16:00.011Z,0
2018-12-18T04:17:09.999Z,0
2018-12-18T04:18:19.927Z,0
2018-12-18T04:19:29.856Z,0
2018-12-18T04:20:39.791Z,0
2018-12-18T04:21:49.817Z,0
2018-12-18T04:22:59.739Z,0
2018-12-18T04:24:09.669Z,0
2018-12-18T04:25:19.347Z,0
2018-12-18T04:26:29.268Z,0
2018-12-18T04:27:39.249Z,0
2018-12-18T04:28:49.177Z,0
2018-12-18T04:29:59.106Z,0
2018-12-18T04:31:09.038Z,0
2018-12-18T04:32:18.976Z,0
2018-12-18T04:33:29.003Z,0
2018-12-18T04:34:45.347Z,0
2018-12-18T04:35:55.277Z,0
2018-12-18T04:37:05.201Z,0
2018-12-18T04:38:15.133Z,0
2018-12-18T04:39:25.104Z,0
2018-12-18T04:40:35.023Z,0
2018-12-18T04:41:44.950Z,0
2018-12-18T04:42:54.886Z,0
2018-12-18T04:44:04.909Z,0
2018-12-18T04:45:15.741Z,0
2018-12-18T04:46:25.822Z,0
2018-12-18T04:47:35.748Z,0
2018-12-18T04:48:45.677Z,0
2018-12-18T04:49:55.608Z,0
2018-12-18T04:51:05.393Z,0
2018-12-18T04:52:15.323Z,0
2018-12-18T04:53:25.286Z,0
2018-12-18T04:54:35.213Z,0
2018-12-18T04:55:44.903Z,0
2018-12-18T04:56:54.884Z,0
2018-12-18T04:58:04.801Z,0
2018-12-18T04:59:14.735Z,0
2018-12-18T05:00:24.652Z,0
2018-12-18T05:01:34.580Z,0
2018-12-18T05:02:44.500Z,0
2018-12-18T05:03:54.429Z,0
2018-12-18T05:05:04.380Z,0
2018-12-18T05:06:14.310Z,0
2018-12-18T05:07:24.234Z,0
2018-12-18T05:08:34.265Z,0
2018-12-18T05:09:44.185Z,0
2018-12-18T05:10:54.112Z,0
2018-12-18T05:12:04.044Z,0
2018-12-18T05:13:13.721Z,0
2018-12-18T05:14:23.799Z,0
2018-12-18T05:15:33.474Z,0
2018-12-18T05:16:43.396Z,0
2018-12-18T05:17:53.341Z,0
2018-12-18T05:19:03.265Z,0
2018-12-18T05:20:14.889Z,0
2018-12-18T05:21:24.818Z,0
2018-12-18T05:22:34.742Z,0
2018-12-18T05:23:44.670Z,0
2018-12-18T05:24:54.587Z,0
2018-12-18T05:26:04.609Z,0
2018-12-18T05:27:14.538Z,0
2018-12-18T05:28:24.455Z,0
2018-12-18T05:29:34.388Z,0
2018-12-18T05:30:44.309Z,0
2018-12-18T05:31:54.092Z,0
2018-12-18T05:33:04.031Z,0
2018-12-18T05:34:13.969Z,0
2018-12-18T05:35:23.892Z,0
2018-12-18T05:36:33.811Z,0
2018-12-18T05:37:43.829Z,0
2018-12-18T05:38:53.755Z,0
2018-12-18T05:40:03.419Z,0
2018-12-18T05:41:13.097Z,0
2018-12-18T05:42:23.015Z,0
2018-12-18T05:43:33.481Z,0
2018-12-18T05:44:43.417Z,0
2018-12-18T05:45:53.336Z,0
2018-12-18T05:47:03.258Z,0
2018-12-18T05:48:12.941Z,0
2018-12-18T05:49:22.959Z,0
2018-12-18T05:50:32.879Z,0
2018-12-18T05:51:42.798Z,0
2018-12-18T05:52:52.715Z,0
2018-12-18T05:54:02.634Z,0
2018-12-18T05:55:12.666Z,0
2018-12-18T05:56:22.585Z,0
2018-12-18T05:57:32.505Z,0
2018-12-18T05:58:42.424Z,0
2018-12-18T05:59:52.348Z,0
2018-12-18T06:01:02.322Z,0
2018-12-18T06:02:12.249Z,0
2018-12-18T06:03:22.173Z,0
2018-12-18T06:04:32.108Z,0
2018-12-18T06:05:42.030Z,0
2018-12-18T06:06:51.745Z,0
2018-12-18T06:08:01.666Z,0
2018-12-18T06:09:11.593Z,0
2018-12-18T06:10:21.520Z,0
2018-12-18T06:11:31.439Z,0
2018-12-18T06:12:41.461Z,0
2018-12-18T06:13:51.379Z,0
2018-12-18T06:15:01.307Z,0
2018-12-18T06:16:11.233Z,0
2018-12-18T06:17:21.150Z,0
2018-12-18T06:18:31.119Z,0
2018-12-18T06:19:41.042Z,0
2018-12-18T06:20:50.967Z,0
2018-12-18T06:22:00.886Z,0
2018-12-18T06:23:10.810Z,0
2018-12-18T06:24:20.825Z,0
2018-12-18T06:25:30.749Z,0
2018-12-18T06:26:40.678Z,0
2018-12-18T06:27:50.605Z,0
2018-12-18T06:29:00.540Z,0
2018-12-18T06:30:10.519Z,0
2018-12-18T06:31:20.441Z,0
2018-12-18T06:32:30.365Z,0
2018-12-18T06:33:40.289Z,0
2018-12-18T06:34:50.228Z,0
2018-12-18T06:36:00.254Z,0
2018-12-18T06:37:10.184Z,0
2018-12-18T06:38:20.115Z,0
2018-12-18T06:39:30.109Z,0
2018-12-18T06:40:40.031Z,0
2018-12-18T06:41:50.069Z,0
2018-12-18T06:43:00.556Z,0
2018-12-18T06:44:10.488Z,0
2018-12-18T06:45:20.415Z,0
2018-12-18T06:46:30.339Z,0
2018-12-18T06:47:40.371Z,0
2018-12-18T06:48:50.289Z,0
2018-12-18T06:50:00.205Z,0
2018-12-18T06:51:10.125Z,0
2018-12-18T06:52:20.046Z,0
2018-12-18T06:53:30.024Z,0
2018-12-18T06:54:39.947Z,0
2018-12-18T06:55:49.866Z,0
2018-12-18T06:56:59.786Z,0
2018-12-18T06:58:09.710Z,0
2018-12-18T06:59:19.803Z,0
2018-12-18T07:00:29.737Z,0
2018-12-18T07:01:39.665Z,0
2018-12-18T07:02:49.593Z,0
2018-12-18T07:03:59.516Z,0
2018-12-18T07:05:09.483Z,0
2018-12-18T07:06:24.528Z,0
2018-12-18T07:07:34.460Z,0
2018-12-18T07:08:44.377Z,0
2018-12-18T07:09:54.300Z,0
2018-12-18T07:11:04.270Z,0
2018-12-18T07:12:14.188Z,0
2018-12-18T07:13:24.108Z,0
2018-12-18T07:14:34.035Z,0
2018-12-18T07:15:43.956Z,0
2018-12-18T07:16:53.927Z,0
2018-12-18T07:18:03.598Z,0
2018-12-18T07:19:13.539Z,0
2018-12-18T07:20:23.471Z,0
2018-12-18T07:21:33.459Z,0
2018-12-18T07:22:43.494Z,0
2018-12-18T07:23:53.423Z,0
2018-12-18T07:25:03.395Z,4
2018-12-18T07:26:13.335Z,4
2018-12-18T07:27:23.324Z,0
2018-12-18T07:28:33.294Z,0
2018-12-18T07:29:43.383Z,4
2018-12-18T07:30:53.353Z,4
2018-12-18T07:32:03.278Z,4
2018-12-18T07:33:13.280Z,4
2018-12-18T07:34:23.255Z,4
2018-12-18T07:35:33.246Z,4
2018-12-18T07:36:42.925Z,4
2018-12-18T07:37:52.842Z,4
2018-12-18T07:39:02.809Z,8
2018-12-18T07:40:12.834Z,8
2018-12-18T07:41:22.752Z,8
2018-12-18T07:42:32.670Z,12
2018-12-18T07:43:42.597Z,12
2018-12-18T07:44:52.524Z,12
2018-12-18T07:46:02.492Z,16
2018-12-18T07:47:12.410Z,16
2018-12-18T07:48:22.329Z,16
2018-12-18T07:49:32.346Z,20
2018-12-18T07:50:42.265Z,24
2018-12-18T07:51:52.348Z,28
2018-12-18T07:53:02.267Z,32
2018-12-18T07:54:12.194Z,36
2018-12-18T07:55:22.114Z,40
2018-12-18T07:56:32.048Z,44
2018-12-18T07:57:42.680Z,48
2018-12-18T07:58:52.598Z,56
2018-12-18T08:00:02.521Z,64
2018-12-18T08:01:12.445Z,68
2018-12-18T08:02:22.361Z,76
2018-12-18T08:03:32.380Z,84
2018-12-18T08:04:42.311Z,92
2018-12-18T08:05:52.254Z,100
2018-12-18T08:07:02.174Z,108
2018-12-18T08:08:12.095Z,120
2018-12-18T08:09:22.117Z,132
2018-12-18T08:10:32.038Z,144
2018-12-18T08:11:41.990Z,156
2018-12-18T08:12:51.908Z,168
2018-12-18T08:14:01.825Z,176
2018-12-18T08:15:11.842Z,192
2018-12-18T08:16:21.768Z,204
2018-12-18T08:17:31.689Z,224
2018-12-18T08:18:41.609Z,244
2018-12-18T08:19:51.534Z,272
2018-12-18T08:21:01.508Z,300
2018-12-18T08:22:11.503Z,336
2018-12-18T08:23:21.419Z,368
2018-12-18T08:24:31.399Z,404
2018-12-18T08:25:41.352Z,444
2018-12-18T08:26:51.953Z,488
2018-12-18T08:28:01.869Z,504
2018-12-18T08:29:11.793Z,496
2018-12-18T08:30:21.715Z,496
2018-12-18T08:31:31.649Z,504
2018-12-18T08:32:41.618Z,512
2018-12-18T08:33:51.551Z,528
2018-12-18T08:35:01.488Z,540
2018-12-18T08:36:11.415Z,556
2018-12-18T08:37:21.339Z,568
2018-12-18T08:38:31.364Z,584
2018-12-18T08:39:41.285Z,604
2018-12-18T08:40:51.217Z,620
2018-12-18T08:42:01.148Z,636
2018-12-18T08:43:11.082Z,656
2018-12-18T08:44:21.054Z,672
2018-12-18T08:45:30.977Z,684
2018-12-18T08:46:40.909Z,676
2018-12-18T08:47:50.846Z,680
2018-12-18T08:49:00.780Z,684
2018-12-18T08:50:10.754Z,700
2018-12-18T08:51:20.675Z,732
2018-12-18T08:52:30.603Z,752
2018-12-18T08:53:40.531Z,772
2018-12-18T08:54:50.454Z,784
2018-12-18T08:56:00.474Z,776
2018-12-18T08:57:10.407Z,776
2018-12-18T08:58:20.077Z,824
2018-12-18T08:59:29.751Z,860
2018-12-18T09:00:39.671Z,860
2018-12-18T09:01:49.642Z,852
2018-12-18T09:02:59.561Z,868
2018-12-18T09:04:09.478Z,876
2018-12-18T09:05:19.402Z,940
2018-12-18T09:06:29.326Z,932
2018-12-18T09:07:39.243Z,960
2018-12-18T09:08:49.167Z,1016
2018-12-18T09:09:59.084Z,1076
2018-12-18T09:11:09.006Z,1104
2018-12-18T09:12:18.934Z,1128
2018-12-18T09:13:28.955Z,1148
2018-12-18T09:14:38.876Z,1188
2018-12-18T09:15:48.864Z,1240
2018-12-18T09:16:59.797Z,1280
2018-12-18T09:18:09.732Z,1304
2018-12-18T09:19:19.769Z,1320
2018-12-18T09:20:29.437Z,1360
2018-12-18T09:21:39.361Z,1352
2018-12-18T09:22:49.287Z,1352
2018-12-18T09:23:59.217Z,1428
2018-12-18T09:25:10.667Z,1488
2018-12-18T09:26:20.587Z,1528
2018-12-18T09:27:30.518Z,1488
2018-12-18T09:28:40.446Z,1428
2018-12-18T09:29:50.373Z,1384
2018-12-18T09:31:00.396Z,1360
2018-12-18T09:32:10.318Z,1300
2018-12-18T09:33:20.246Z,1280
2018-12-18T09:34:30.194Z,1272
2018-12-18T09:35:40.987Z,1264
2018-12-18T09:36:57.214Z,1256
2018-12-18T09:38:07.135Z,1280
2018-12-18T09:39:17.121Z,1300
2018-12-18T09:40:27.110Z,1340
2018-12-18T09:41:37.045Z,1424
2018-12-18T09:42:47.086Z,1524
2018-12-18T09:43:57.010Z,1580
2018-12-18T09:45:06.937Z,1608
2018-12-18T09:46:16.865Z,1660
2018-12-18T09:47:26.783Z,1628
2018-12-18T09:48:36.808Z,1568
2018-12-18T09:49:46.749Z,1552
2018-12-18T09:50:56.672Z,1552
2018-12-18T09:52:06.596Z,1556
2018-12-18T09:53:16.524Z,1564
2018-12-18T09:54:26.553Z,1576
2018-12-18T09:55:36.473Z,1572
2018-12-18T09:56:46.405Z,1552
2018-12-18T09:57:56.324Z,1552
2018-12-18T09:59:06.245Z,1596
2018-12-18T10:00:16.168Z,1656
2018-12-18T10:01:26.092Z,1712
2018-12-18T10:02:36.018Z,1768
2018-12-18T10:03:45.937Z,1796
2018-12-18T10:04:55.609Z,1792
2018-12-18T10:06:05.535Z,1764
2018-12-18T10:07:15.459Z,1740
2018-12-18T10:08:25.388Z,1796
2018-12-18T10:09:35.311Z,1720
2018-12-18T10:10:45.296Z,1704
2018-12-18T10:11:55.327Z,1724
2018-12-18T10:13:05.015Z,1760
2018-12-18T10:14:14.946Z,1860
2018-12-18T10:15:24.871Z,2132
2018-12-18T10:16:34.803Z,2580
2018-12-18T10:17:44.739Z,2168
2018-12-18T10:18:56.109Z,2088
2018-12-18T10:20:06.035Z,2132
2018-12-18T10:21:15.958Z,2216
2018-12-18T10:22:25.887Z,2236
2018-12-18T10:23:35.917Z,2196
2018-12-18T10:24:45.849Z,2124
2018-12-18T10:25:55.524Z,2012
2018-12-18T10:27:05.449Z,2012
2018-12-18T10:28:15.374Z,2196
2018-12-18T10:29:25.400Z,2096
2018-12-18T10:30:35.329Z,2100
2018-12-18T10:31:45.268Z,2164
2018-12-18T10:32:55.192Z,2268
2018-12-18T10:34:04.866Z,2048
2018-12-18T10:35:14.787Z,2008
2018-12-18T10:36:24.715Z,2012
2018-12-18T10:37:34.643Z,2076
2018-12-18T10:38:44.583Z,2088
2018-12-18T10:39:54.536Z,2132
2018-12-18T10:41:04.517Z,2204
2018-12-18T10:42:14.441Z,2256
2018-12-18T10:43:24.361Z,2244
2018-12-18T10:44:34.286Z,2248
2018-12-18T10:45:44.208Z,2220
2018-12-18T10:46:54.246Z,2148
2018-12-18T10:48:04.179Z,2072
2018-12-18T10:49:14.101Z,2024
2018-12-18T10:50:24.027Z,2020
2018-12-18T10:51:33.951Z,2048
2018-12-18T10:52:43.972Z,2108
2018-12-18T10:53:53.903Z,2148
2018-12-18T10:55:03.829Z,2164
2018-12-18T10:56:13.768Z,2156
2018-12-18T10:57:23.698Z,2180
2018-12-18T10:58:33.776Z,2204
2018-12-18T10:59:43.701Z,2244
2018-12-18T11:00:53.707Z,2332
2018-12-18T11:02:03.648Z,2520
2018-12-18T11:03:13.591Z,2452
2018-12-18T11:04:23.619Z,2416
2018-12-18T11:05:33.546Z,2444
2018-12-18T11:06:43.467Z,2468
2018-12-18T11:07:53.149Z,2516
2018-12-18T11:09:03.074Z,2552
2018-12-18T11:10:13.152Z,2488
2018-12-18T11:11:23.083Z,2436
2018-12-18T11:12:32.757Z,2460
2018-12-18T11:13:42.687Z,2464
2018-12-18T11:14:52.613Z,2456
2018-12-18T11:16:02.568Z,2440
2018-12-18T11:17:12.495Z,2412
2018-12-18T11:18:22.420Z,2392
2018-12-18T11:19:32.347Z,2300
2018-12-18T11:20:42.269Z,2244
2018-12-18T11:21:52.298Z,2164
2018-12-18T11:23:02.227Z,2020
2018-12-18T11:24:12.174Z,1916
2018-12-18T11:25:22.103Z,1872
2018-12-18T11:26:32.028Z,1856
2018-12-18T11:27:41.955Z,1852
2018-12-18T11:28:51.890Z,1812
2018-12-18T11:30:01.839Z,1784
2018-12-18T11:31:11.764Z,1776
2018-12-18T11:32:21.688Z,1808
2018-12-18T11:33:31.680Z,1856
2018-12-18T11:34:41.352Z,1884
2018-12-18T11:35:51.027Z,1904
2018-12-18T11:37:00.989Z,1852
2018-12-18T11:38:10.926Z,1832
2018-12-18T11:39:20.645Z,1860
2018-12-18T11:40:30.326Z,1872
2018-12-18T11:41:40.250Z,1888
2018-12-18T11:42:50.170Z,1916
2018-12-18T11:44:00.093Z,1976
2018-12-18T11:45:10.118Z,2024
2018-12-18T11:46:20.062Z,2060
2018-12-18T11:47:29.995Z,2032
2018-12-18T11:48:39.921Z,1988
2018-12-18T11:49:49.849Z,1968
2018-12-18T11:50:59.884Z,1932
2018-12-18T11:52:09.815Z,1912
2018-12-18T11:53:19.744Z,1884
2018-12-18T11:54:29.681Z,1868
2018-12-18T11:55:39.360Z,1896
2018-12-18T11:56:49.285Z,1892
2018-12-18T11:57:59.209Z,1944
2018-12-18T11:59:09.153Z,1988
2018-12-18T12:00:19.079Z,2040
2018-12-18T12:01:29.007Z,2136
2018-12-18T12:02:45.338Z,2252
2018-12-18T12:03:55.277Z,2296
2018-12-18T12:05:05.203Z,2300
2018-12-18T12:06:15.139Z,2344
2018-12-18T12:07:30.778Z,2444
2018-12-18T12:08:40.819Z,2500
2018-12-18T12:09:50.502Z,2636
2018-12-18T12:11:00.428Z,2692
2018-12-18T12:12:10.355Z,2808
2018-12-18T12:13:20.396Z,2860
2018-12-18T12:14:30.326Z,2844
2018-12-18T12:15:39.995Z,3060
2018-12-18T12:16:49.917Z,3148
2018-12-18T12:17:59.847Z,3272
2018-12-18T12:19:09.773Z,3264
2018-12-18T12:20:19.700Z,3144
2018-12-18T12:21:29.624Z,3104
2018-12-18T12:22:39.299Z,3052
2018-12-18T12:23:49.224Z,3024
2018-12-18T12:24:59.199Z,3036
2018-12-18T12:26:09.127Z,2956
2018-12-18T12:27:18.863Z,2860
2018-12-18T12:28:28.788Z,2796
2018-12-18T12:29:38.717Z,2848
2018-12-18T12:30:48.692Z,2888
2018-12-18T12:31:58.625Z,2784
2018-12-18T12:33:08.549Z,2692
2018-12-18T12:34:18.470Z,2532
2018-12-18T12:35:28.394Z,2324
2018-12-18T12:36:38.380Z,2160
2018-12-18T12:37:48.304Z,1984
2018-12-18T12:38:58.233Z,1840
2018-12-18T12:40:08.166Z,1780
2018-12-18T12:41:18.096Z,1764
2018-12-18T12:42:28.122Z,1732
2018-12-18T12:43:37.837Z,1704
2018-12-18T12:44:47.760Z,1600
2018-12-18T12:45:57.693Z,1500
2018-12-18T12:47:07.620Z,1412
2018-12-18T12:48:17.600Z,1352
2018-12-18T12:49:27.529Z,1360
2018-12-18T12:50:37.456Z,1348
2018-12-18T12:51:47.385Z,1348
2018-12-18T12:52:57.311Z,1320
2018-12-18T12:54:07.389Z,1272
2018-12-18T12:55:17.333Z,1220
2018-12-18T12:56:27.262Z,1196
2018-12-18T12:57:37.197Z,1156
2018-12-18T12:58:47.187Z,1104
2018-12-18T12:59:57.269Z,1072
2018-12-18T13:01:07.204Z,1036
2018-12-18T13:02:17.138Z,1036
2018-12-18T13:03:27.070Z,1036
2018-12-18T13:04:36.993Z,1008
2018-12-18T13:05:47.022Z,992
2018-12-18T13:06:56.969Z,976
2018-12-18T13:08:06.907Z,960
2018-12-18T13:09:16.850Z,944
2018-12-18T13:10:26.525Z,916
2018-12-18T13:11:36.566Z,884
2018-12-18T13:12:46.497Z,852
2018-12-18T13:13:56.193Z,816
2018-12-18T13:15:06.135Z,796
2018-12-18T13:16:16.061Z,776
2018-12-18T13:17:26.093Z,752
2018-12-18T13:18:36.025Z,740
2018-12-18T13:19:45.954Z,736
2018-12-18T13:20:55.645Z,720
2018-12-18T13:22:05.573Z,708
2018-12-18T13:23:15.561Z,696
2018-12-18T13:24:25.492Z,684
2018-12-18T13:25:35.417Z,664
2018-12-18T13:26:45.350Z,644
2018-12-18T13:27:55.275Z,616
2018-12-18T13:29:05.355Z,584
2018-12-18T13:30:15.282Z,552
2018-12-18T13:31:25.207Z,532
2018-12-18T13:32:35.134Z,516
2018-12-18T13:33:45.079Z,516
2018-12-18T13:34:55.009Z,496
2018-12-18T13:36:04.935Z,464
2018-12-18T13:37:14.862Z,448
2018-12-18T13:38:24.797Z,432
2018-12-18T13:39:34.726Z,416
2018-12-18T13:40:44.707Z,396
2018-12-18T13:41:54.630Z,376
2018-12-18T13:43:04.557Z,364
2018-12-18T13:44:14.489Z,356
2018-12-18T13:45:24.208Z,336
2018-12-18T13:46:34.243Z,324
2018-12-18T13:47:44.168Z,304
2018-12-18T13:48:54.098Z,288
2018-12-18T13:50:04.039Z,268
2018-12-18T13:51:13.969Z,252
2018-12-18T13:52:23.995Z,240
2018-12-18T13:53:33.931Z,228
2018-12-18T13:54:43.858Z,212
2018-12-18T13:55:53.789Z,196
2018-12-18T13:57:03.716Z,184
2018-12-18T13:58:13.741Z,176
2018-12-18T13:59:23.677Z,168
2018-12-18T14:00:33.612Z,156
2018-12-18T14:01:43.540Z,148
2018-12-18T14:02:53.468Z,140
2018-12-18T14:04:04.986Z,132
2018-12-18T14:05:14.964Z,128
2018-12-18T14:06:24.928Z,116
2018-12-18T14:07:34.851Z,112
2018-12-18T14:08:44.779Z,108
2018-12-18T14:09:54.811Z,96
2018-12-18T14:11:04.736Z,92
2018-12-18T14:12:14.672Z,84
2018-12-18T14:13:24.340Z,72
2018-12-18T14:14:34.307Z,68
2018-12-18T14:15:44.048Z,64
2018-12-18T14:16:53.980Z,60
2018-12-18T14:18:03.909Z,52
2018-12-18T14:19:13.839Z,52
2018-12-18T14:20:23.762Z,48
2018-12-18T14:21:33.737Z,40
2018-12-18T14:22:43.666Z,40
2018-12-18T14:23:53.589Z,36
2018-12-18T14:25:03.524Z,32
2018-12-18T14:26:13.444Z,32
2018-12-18T14:27:23.539Z,24
2018-12-18T14:28:33.478Z,24
2018-12-18T14:29:43.147Z,20
2018-12-18T14:30:53.087Z,20
2018-12-18T14:32:03.018Z,20
2018-12-18T14:33:12.993Z,12
2018-12-18T14:34:22.947Z,12
2018-12-18T14:35:32.872Z,12
2018-12-18T14:36:43.118Z,12
2018-12-18T14:37:53.045Z,8
2018-12-18T14:39:03.071Z,8
2018-12-18T14:40:13.004Z,8
2018-12-18T14:41:22.925Z,8
2018-12-18T14:42:32.857Z,8
2018-12-18T14:43:42.791Z,4
2018-12-18T14:44:52.868Z,4
2018-12-18T14:46:02.853Z,0
2018-12-18T14:47:12.795Z,4
2018-12-18T14:48:22.721Z,4
2018-12-18T14:49:32.712Z,4
2018-12-18T14:50:42.688Z,4
2018-12-18T14:51:52.609Z,4
2018-12-18T14:53:02.540Z,0
2018-12-18T14:54:12.220Z,0
2018-12-18T14:55:22.147Z,0
2018-12-18T14:56:32.231Z,0
2018-12-18T14:57:42.157Z,0
2018-12-18T14:58:52.084Z,0
2018-12-18T15:00:02.015Z,0
2018-12-18T15:01:11.947Z,0
2018-12-18T15:02:22.020Z,0
2018-12-18T15:03:31.945Z,0
2018-12-18T15:04:41.867Z,0
2018-12-18T15:05:51.808Z,0
2018-12-18T15:07:07.599Z,0
2018-12-18T15:08:17.575Z,0
2018-12-18T15:09:27.497Z,0
2018-12-18T15:10:37.421Z,0
2018-12-18T15:11:47.346Z,0
2018-12-18T15:12:57.272Z,0
2018-12-18T15:14:06.996Z,0
2018-12-18T15:15:16.923Z,0
2018-12-18T15:16:26.844Z,0
2018-12-18T15:17:36.774Z,0
2018-12-18T15:18:46.702Z,0
2018-12-18T15:19:56.673Z,0
2018-12-18T15:21:06.596Z,0
2018-12-18T15:22:16.534Z,0
2018-12-18T15:23:26.477Z,0
2018-12-18T15:24:36.410Z,0
2018-12-18T15:25:46.431Z,0
2018-12-18T15:26:56.355Z,0
2018-12-18T15:28:06.295Z,0
2018-12-18T15:29:16.219Z,0
2018-12-18T15:30:30.810Z,0
2018-12-18T15:34:03.847Z,0
2018-12-18T15:35:13.770Z,0
2018-12-18T15:36:23.457Z,0
2018-12-18T15:37:33.383Z,0
2018-12-18T15:38:43.307Z,0
2018-12-18T15:39:53.279Z,0
2018-12-18T15:41:03.202Z,0
2018-12-18T15:42:27.765Z,0
2018-12-18T15:43:37.690Z,0
2018-12-18T15:44:47.776Z,0
2018-12-18T15:45:57.725Z,0
2018-12-18T15:47:07.651Z,0
2018-12-18T15:48:17.580Z,0
2018-12-18T15:49:27.509Z,0
2018-12-18T15:50:37.486Z,0
2018-12-18T15:51:47.409Z,0
2018-12-18T15:52:57.333Z,0
2018-12-18T15:54:07.252Z,0
2018-12-18T15:55:17.179Z,0
2018-12-18T15:56:27.203Z,0
2018-12-18T15:57:37.128Z,0
2018-12-18T15:58:47.111Z,0
2018-12-18T15:59:57.052Z,0
2018-12-18T16:01:06.979Z,0
2018-12-18T16:02:16.998Z,0
2018-12-18T16:03:31.895Z,0
2018-12-18T16:04:41.572Z,0
2018-12-18T16:05:51.490Z,0
2018-12-18T16:07:01.164Z,0
2018-12-18T16:08:11.199Z,0
2018-12-18T16:09:21.124Z,0
2018-12-18T16:10:31.067Z,0
2018-12-18T16:11:40.997Z,0
2018-12-18T16:12:50.927Z,0
2018-12-18T16:15:25.458Z,0
2018-12-18T16:16:35.384Z,0
2018-12-18T16:17:45.312Z,0
2018-12-18T16:18:55.385Z,0
2018-12-18T16:20:05.320Z,0
2018-12-18T16:21:15.251Z,0
2018-12-18T16:22:25.171Z,0
2018-12-18T16:23:35.108Z,0
2018-12-18T16:24:45.184Z,0
2018-12-18T16:25:55.106Z,0
2018-12-18T16:27:05.040Z,0
2018-12-18T16:28:14.965Z,0
2018-12-18T16:29:24.894Z,0
2018-12-18T16:30:34.941Z,0
2018-12-18T16:31:44.866Z,0
2018-12-18T16:32:54.851Z,0
2018-12-18T16:34:04.779Z,0
2018-12-18T16:35:14.701Z,0
2018-12-18T16:36:24.674Z,0
2018-12-18T16:37:34.595Z,0
2018-12-18T16:38:44.522Z,0
2018-12-18T16:39:54.195Z,0
2018-12-18T16:41:04.122Z,0
2018-12-18T16:42:14.157Z,0